createdAt,value
2022-09-21T00:02:12.493Z,11.73
2022-09-21T00:04:44.110Z,13.40
2022-09-21T00:07:15.731Z,15.45
2022-09-21T00:09:47.370Z,10.15
2022-09-21T00:12:19.723Z,12.27
2022-09-21T00:14:51.312Z,10.68
2022-09-21T00:17:22.942Z,13.38
2022-09-21T00:19:54.558Z,12.07
2022-09-21T00:22:26.217Z,11.77
2022-09-21T00:24:57.837Z,9.55
2022-09-21T00:27:30.959Z,8.77
2022-09-21T00:30:07.617Z,10.60
2022-09-21T00:32:42.071Z,13.98
2022-09-21T00:35:13.668Z,8.50
2022-09-21T00:37:45.290Z,10.82
2022-09-21T00:40:17.361Z,11.45
2022-09-21T00:42:48.998Z,9.98
2022-09-21T00:45:23.814Z,10.18
2022-09-21T00:47:55.702Z,9.30
2022-09-21T00:50:27.514Z,8.85
2022-09-21T00:52:59.323Z,10.65
2022-09-21T00:55:43.318Z,12.77
2022-09-21T00:58:20.653Z,8.32
2022-09-21T01:00:56.897Z,9.63
2022-09-21T01:03:30.570Z,10.63
2022-09-21T01:06:03.070Z,8.68
2022-09-21T01:08:35.158Z,10.52
2022-09-21T01:11:48.261Z,11.65
2022-09-21T01:14:26.570Z,8.63
2022-09-21T01:17:24.566Z,7.68
2022-09-21T01:20:18.017Z,9.88
2022-09-21T01:23:04.854Z,9.88
2022-09-21T01:26:08.093Z,9.27
2022-09-21T01:29:10.900Z,9.27
2022-09-21T01:32:23.733Z,9.43
2022-09-21T01:35:07.221Z,8.68
2022-09-21T01:37:45.368Z,8.27
2022-09-21T01:40:31.966Z,8.63
2022-09-21T01:43:09.493Z,8.70
2022-09-21T01:45:47.975Z,8.55
2022-09-21T01:48:22.327Z,8.98
2022-09-21T01:50:57.515Z,7.60
2022-09-21T01:53:37.483Z,7.55
2022-09-21T01:56:18.394Z,7.28
2022-09-21T01:59:00.294Z,7.68
2022-09-21T02:01:38.904Z,7.45
2022-09-21T02:04:13.552Z,6.90
2022-09-21T02:06:47.136Z,5.40
2022-09-21T02:09:19.859Z,5.85
2022-09-21T02:11:51.488Z,7.18
2022-09-21T02:14:25.930Z,7.43
2022-09-21T02:17:06.423Z,7.15
2022-09-21T02:20:03.134Z,6.53
2022-09-21T02:22:54.910Z,8.10
2022-09-21T02:25:47.406Z,7.10
2022-09-21T02:28:26.980Z,6.75
2022-09-21T02:31:35.152Z,6.45
2022-09-21T02:34:21.902Z,7.30
2022-09-21T02:37:06.886Z,7.28
2022-09-21T02:39:54.881Z,6.90
2022-09-21T02:42:31.317Z,6.70
2022-09-21T02:45:14.628Z,5.95
2022-09-21T02:48:01.389Z,5.45
2022-09-21T02:50:48.709Z,5.82
2022-09-21T02:53:25.688Z,6.93
2022-09-21T02:56:02.981Z,7.22
2022-09-21T02:58:38.170Z,7.60
2022-09-21T03:01:15.289Z,4.70
2022-09-21T03:03:46.991Z,8.30
2022-09-21T03:06:21.755Z,8.60
2022-09-21T03:11:25.720Z,8.00
2022-09-21T03:13:57.400Z,7.10
2022-09-21T03:16:29.333Z,7.53
2022-09-21T03:19:01.076Z,5.60
2022-09-21T03:21:32.747Z,7.82
2022-09-21T03:24:07.225Z,5.88
2022-09-21T03:26:40.829Z,7.57
2022-09-21T03:29:12.944Z,6.47
2022-09-21T03:31:47.401Z,6.28
2022-09-21T03:34:21.874Z,7.18
2022-09-21T03:36:53.584Z,5.65
2022-09-21T03:39:25.198Z,6.85
2022-09-21T03:41:56.965Z,8.82
2022-09-21T03:44:31.272Z,6.07
2022-09-21T03:47:03.212Z,6.50
2022-09-21T03:49:35.130Z,5.82
2022-09-21T03:52:06.778Z,6.85
2022-09-21T03:54:38.422Z,7.97
2022-09-21T03:57:10.041Z,9.35
2022-09-21T03:59:42.135Z,7.25
2022-09-21T04:02:13.830Z,7.90
2022-09-21T04:04:45.759Z,7.20
2022-09-21T04:07:17.458Z,6.95
2022-09-21T04:09:49.090Z,7.53
2022-09-21T04:12:23.729Z,7.68
2022-09-21T04:14:55.348Z,7.82
2022-09-21T04:17:27.886Z,8.10
2022-09-21T04:20:01.226Z,8.50
2022-09-21T04:22:32.817Z,7.15
2022-09-21T04:25:05.486Z,6.70
2022-09-21T04:27:37.176Z,9.82
2022-09-21T04:30:11.350Z,7.70
2022-09-21T04:32:43.622Z,8.82
2022-09-21T04:35:15.294Z,6.82
2022-09-21T04:37:46.870Z,7.30
2022-09-21T04:40:18.529Z,7.32
2022-09-21T04:42:56.056Z,6.45
2022-09-21T04:45:27.731Z,6.78
2022-09-21T04:47:59.330Z,6.20
2022-09-21T04:50:30.988Z,8.48
2022-09-21T04:53:08.016Z,6.70
2022-09-21T04:55:40.288Z,7.28
2022-09-21T04:58:11.854Z,5.22
2022-09-21T05:00:44.022Z,7.95
2022-09-21T05:03:15.682Z,6.88
2022-09-21T05:05:52.417Z,6.30
2022-09-21T05:08:44.869Z,6.22
2022-09-21T05:11:23.879Z,8.48
2022-09-21T05:13:58.284Z,7.65
2022-09-21T05:16:29.905Z,8.05
2022-09-21T05:19:01.507Z,8.80
2022-09-21T05:21:33.447Z,8.50
2022-09-21T05:24:05.351Z,12.27
2022-09-21T05:26:37.406Z,9.85
2022-09-21T05:29:09.272Z,10.18
2022-09-21T05:32:01.419Z,6.20
2022-09-21T05:34:54.018Z,6.07
2022-09-21T05:37:39.139Z,12.40
2022-09-21T05:42:44.305Z,9.15
2022-09-21T05:45:17.978Z,8.55
2022-09-21T05:48:25.220Z,6.35
2022-09-21T05:51:27.118Z,6.93
2022-09-21T05:54:03.476Z,9.18
2022-09-21T05:56:53.842Z,9.82
2022-09-21T05:59:41.466Z,8.38
2022-09-21T06:02:44.254Z,6.38
2022-09-21T06:05:16.700Z,7.95
2022-09-21T06:07:51.202Z,7.38
2022-09-21T06:10:24.770Z,9.43
2022-09-21T06:12:56.640Z,7.47
2022-09-21T06:15:28.559Z,7.05
2022-09-21T06:18:00.263Z,7.72
2022-09-21T06:20:32.180Z,7.05
2022-09-21T06:23:10.557Z,6.30
2022-09-21T06:25:42.277Z,8.65
2022-09-21T06:28:14.030Z,6.50
2022-09-21T06:30:54.465Z,8.20
2022-09-21T06:33:26.374Z,8.88
2022-09-21T06:36:02.270Z,12.77
2022-09-21T06:38:35.544Z,9.55
2022-09-21T06:41:07.231Z,7.80
2022-09-21T06:43:38.823Z,8.77
2022-09-21T06:46:10.463Z,9.15
2022-09-21T06:48:42.139Z,9.40
2022-09-21T06:51:13.796Z,9.73
2022-09-21T06:53:45.517Z,7.78
2022-09-21T06:56:17.172Z,14.20
2022-09-21T06:58:48.828Z,9.20
2022-09-21T07:01:20.975Z,6.88
2022-09-21T07:03:54.014Z,9.68
2022-09-21T07:06:25.717Z,10.57
2022-09-21T07:11:50.129Z,10.40
2022-09-21T07:14:22.536Z,8.10
2022-09-21T07:16:54.180Z,14.98
2022-09-21T07:19:25.883Z,12.35
2022-09-21T07:21:57.578Z,8.43
2022-09-21T07:24:29.209Z,7.38
2022-09-21T07:27:04.188Z,9.95
2022-09-21T07:29:37.028Z,6.45
2022-09-21T07:32:10.001Z,9.80
2022-09-21T07:34:41.642Z,7.20
2022-09-21T07:37:14.613Z,5.35
2022-09-21T07:39:46.197Z,6.38
2022-09-21T07:42:20.062Z,10.32
2022-09-21T07:45:03.150Z,8.98
2022-09-21T07:47:35.433Z,7.15
2022-09-21T07:50:10.010Z,8.15
2022-09-21T07:55:13.606Z,8.77
2022-09-21T07:58:03.791Z,9.07
2022-09-21T08:00:36.360Z,5.80
2022-09-21T08:03:08.100Z,5.53
2022-09-21T08:05:42.341Z,9.07
2022-09-21T08:08:15.564Z,6.47
2022-09-21T08:10:53.003Z,4.38
2022-09-21T08:13:30.192Z,3.97
2022-09-21T08:16:03.154Z,7.93
2022-09-21T08:18:39.621Z,4.53
2022-09-21T08:21:13.669Z,3.80
2022-09-21T08:23:46.011Z,7.13
2022-09-21T08:26:20.003Z,5.20
2022-09-21T08:28:53.412Z,3.38
2022-09-21T08:31:25.797Z,4.28
2022-09-21T08:33:57.755Z,7.65
2022-09-21T08:36:31.478Z,3.85
2022-09-21T08:39:07.399Z,3.53
2022-09-21T08:42:00.486Z,4.90
2022-09-21T08:44:47.067Z,4.53
2022-09-21T08:47:45.040Z,3.60
2022-09-21T08:50:22.561Z,3.80
2022-09-21T08:53:01.906Z,4.13
2022-09-21T08:55:34.075Z,4.55
2022-09-21T08:58:18.585Z,4.00
2022-09-21T09:01:12.645Z,4.93
2022-09-21T09:04:14.746Z,4.85
2022-09-21T09:06:58.149Z,4.38
2022-09-21T09:09:55.843Z,3.95
2022-09-21T09:13:08.597Z,4.53
2022-09-21T09:16:01.638Z,4.60
2022-09-21T09:19:00.334Z,7.00
2022-09-21T09:21:40.563Z,4.20
2022-09-21T09:24:24.320Z,5.88
2022-09-21T09:27:04.378Z,4.57
2022-09-21T09:29:50.883Z,9.13
2022-09-21T09:32:30.704Z,5.82
2022-09-21T09:35:28.035Z,5.30
2022-09-21T09:38:20.766Z,5.57
2022-09-21T09:41:19.633Z,6.22
2022-09-21T09:44:21.939Z,4.35
2022-09-21T09:46:59.638Z,5.28
2022-09-21T09:50:01.883Z,5.85
2022-09-21T09:52:34.070Z,6.18
2022-09-21T09:55:24.825Z,4.20
2022-09-21T09:58:00.042Z,4.18
2022-09-21T10:00:31.693Z,6.68
2022-09-21T10:03:18.230Z,4.22
2022-09-21T10:05:51.009Z,4.32
2022-09-21T10:08:48.781Z,4.75
2022-09-21T10:11:34.646Z,3.17
2022-09-21T10:14:13.867Z,6.60
2022-09-21T10:16:45.802Z,3.63
2022-09-21T10:19:24.344Z,3.25
2022-09-21T10:21:58.696Z,3.03
2022-09-21T10:24:37.335Z,3.88
2022-09-21T10:27:19.745Z,2.85
2022-09-21T10:29:51.507Z,4.00
2022-09-21T10:32:27.698Z,10.13
2022-09-21T10:35:08.046Z,4.85
2022-09-21T10:37:53.690Z,3.75
2022-09-21T10:40:27.335Z,3.67
2022-09-21T10:43:00.468Z,6.55
2022-09-21T10:45:37.071Z,4.78
2022-09-21T10:48:18.280Z,3.28
2022-09-21T10:50:51.973Z,6.90
2022-09-21T10:53:30.660Z,5.63
2022-09-21T10:56:22.114Z,6.35
2022-09-21T10:59:23.779Z,3.83
2022-09-21T11:01:58.246Z,5.00
2022-09-21T11:07:20.520Z,3.08
2022-09-21T11:10:02.260Z,3.78
2022-09-21T11:12:39.850Z,3.28
2022-09-21T11:15:26.426Z,5.00
2022-09-21T11:18:13.044Z,4.07
2022-09-21T11:21:09.553Z,3.50
2022-09-21T11:23:55.764Z,3.10
2022-09-21T11:29:32.296Z,4.15
2022-09-21T11:32:26.250Z,3.78
2022-09-21T11:34:57.805Z,4.15
2022-09-21T11:37:49.609Z,5.07
2022-09-21T11:40:53.124Z,3.63
2022-09-21T11:43:27.797Z,5.72
2022-09-21T11:46:07.128Z,3.85
2022-09-21T11:48:47.486Z,4.40
2022-09-21T11:51:38.795Z,4.00
2022-09-21T11:54:16.344Z,4.38
2022-09-21T11:57:01.430Z,2.70
2022-09-21T12:00:04.190Z,2.67
2022-09-21T12:03:04.513Z,4.85
2022-09-21T12:05:58.928Z,4.05
2022-09-21T12:09:08.871Z,2.90
2022-09-21T12:11:48.780Z,5.80
2022-09-21T12:14:43.334Z,2.70
2022-09-21T12:17:24.411Z,2.85
2022-09-21T12:20:26.645Z,3.90
2022-09-21T12:23:38.682Z,3.13
2022-09-21T12:26:15.620Z,3.10
2022-09-21T12:28:53.703Z,2.70
2022-09-21T12:31:36.389Z,3.83
2022-09-21T12:34:20.545Z,5.28
2022-09-21T12:37:07.958Z,2.20
2022-09-21T12:39:47.111Z,2.80
2022-09-21T12:42:38.518Z,3.80
2022-09-21T12:45:19.124Z,4.55
2022-09-21T12:48:20.201Z,2.85
2022-09-21T12:51:18.203Z,2.97
2022-09-21T12:53:53.367Z,4.53
2022-09-21T12:56:37.503Z,2.70
2022-09-21T12:59:50.108Z,4.30
2022-09-21T13:02:33.285Z,3.20
2022-09-21T13:05:11.958Z,4.78
2022-09-21T13:08:08.549Z,3.35
2022-09-21T13:11:05.022Z,5.15
2022-09-21T13:13:53.901Z,3.08
2022-09-21T13:16:33.009Z,1.98
2022-09-21T13:19:16.996Z,1.92
2022-09-21T13:22:22.717Z,2.83
2022-09-21T13:28:01.227Z,1.35
2022-09-21T13:30:37.843Z,1.67
2022-09-21T13:33:20.713Z,1.90
2022-09-21T13:36:02.013Z,1.80
2022-09-21T13:38:40.151Z,2.55
2022-09-21T13:41:17.956Z,1.42
2022-09-21T13:44:01.240Z,1.30
2022-09-21T13:46:35.942Z,3.25
2022-09-21T13:49:16.284Z,3.15
2022-09-21T13:52:08.657Z,2.00
2022-09-21T13:54:52.274Z,3.25
2022-09-21T13:57:36.963Z,2.22
2022-09-21T14:00:12.475Z,1.00
2022-09-21T14:02:58.709Z,1.58
2022-09-21T14:05:33.362Z,2.47
2022-09-21T14:10:38.626Z,4.60
2022-09-21T14:13:26.871Z,3.03
2022-09-21T14:16:37.433Z,2.03
2022-09-21T14:19:18.104Z,1.85
2022-09-21T14:22:07.701Z,2.53
2022-09-21T14:24:52.211Z,4.05
2022-09-21T14:27:31.739Z,2.95
2022-09-21T14:30:22.160Z,2.17
2022-09-21T14:33:02.129Z,1.70
2022-09-21T14:35:38.361Z,3.05
2022-09-21T14:38:24.882Z,3.78
2022-09-21T14:41:01.868Z,2.58
2022-09-21T14:43:37.451Z,3.42
2022-09-21T14:46:16.656Z,1.80
2022-09-21T14:49:11.110Z,2.33
2022-09-21T14:52:04.367Z,1.07
2022-09-21T14:55:15.849Z,2.17
2022-09-21T14:58:04.807Z,1.83
2022-09-21T15:00:50.274Z,2.53
2022-09-21T15:03:40.747Z,2.05
2022-09-21T15:06:43.089Z,2.30
2022-09-21T15:10:04.333Z,2.33
2022-09-21T15:12:46.703Z,3.50
2022-09-21T15:15:28.466Z,2.95
2022-09-21T15:18:01.944Z,3.83
2022-09-21T15:20:36.712Z,3.58
2022-09-21T15:23:19.593Z,5.18
2022-09-21T15:26:09.272Z,2.30
2022-09-21T15:29:08.841Z,3.78
2022-09-21T15:31:42.281Z,3.35
2022-09-21T15:34:15.289Z,3.92
2022-09-21T15:36:50.944Z,4.78
2022-09-21T15:39:30.335Z,3.13
2022-09-21T15:42:07.652Z,3.42
2022-09-21T15:44:39.538Z,5.60
2022-09-21T15:47:13.108Z,5.60
2022-09-21T15:49:47.031Z,3.88
2022-09-21T15:52:34.311Z,3.50
2022-09-21T15:55:21.545Z,3.33
2022-09-21T15:57:58.833Z,3.45
2022-09-21T16:00:35.196Z,3.90
2022-09-21T16:03:17.214Z,3.70
2022-09-21T16:05:54.485Z,4.13
2022-09-21T16:08:35.187Z,3.25
2022-09-21T16:11:26.356Z,5.90
2022-09-21T16:14:42.805Z,4.82
2022-09-21T16:17:16.952Z,4.13
2022-09-21T16:19:51.261Z,4.47
2022-09-21T16:22:29.380Z,3.83
2022-09-21T16:25:01.776Z,4.32
2022-09-21T16:27:33.569Z,3.55
2022-09-21T16:30:06.436Z,6.63
2022-09-21T16:32:38.155Z,7.13
2022-09-21T16:35:31.435Z,5.05
2022-09-21T16:38:03.106Z,4.47
2022-09-21T16:40:34.814Z,6.35
2022-09-21T16:43:07.134Z,5.28
2022-09-21T16:45:40.034Z,5.00
2022-09-21T16:48:13.188Z,4.82
2022-09-21T16:50:52.133Z,4.13
2022-09-21T16:53:23.771Z,4.97
2022-09-21T16:55:55.631Z,4.78
2022-09-21T16:58:29.381Z,7.28
2022-09-21T17:01:01.256Z,6.23
2022-09-21T17:03:34.804Z,4.50
2022-09-21T17:06:17.618Z,4.70
2022-09-21T17:08:49.854Z,5.88
2022-09-21T17:11:21.492Z,4.07
2022-09-21T17:13:59.595Z,4.55
2022-09-21T17:16:31.200Z,6.32
2022-09-21T17:19:03.669Z,5.18
2022-09-21T17:21:35.463Z,5.68
2022-09-21T17:24:07.468Z,5.68
2022-09-21T17:26:39.389Z,9.45
2022-09-21T17:29:26.952Z,7.50
2022-09-21T17:31:58.714Z,7.22
2022-09-21T17:34:32.326Z,7.95
2022-09-21T17:37:04.089Z,6.18
2022-09-21T17:39:36.254Z,5.45
2022-09-21T17:42:21.275Z,5.07
2022-09-21T17:47:33.623Z,6.35
2022-09-21T17:50:14.467Z,6.85
2022-09-21T17:53:05.073Z,8.00
2022-09-21T17:55:38.737Z,6.00
2022-09-21T17:58:24.406Z,8.05
2022-09-21T18:01:22.686Z,6.95
2022-09-21T18:03:54.919Z,7.60
2022-09-21T18:06:27.111Z,8.73
2022-09-21T18:08:58.927Z,10.32
2022-09-21T18:11:45.018Z,7.72
2022-09-21T18:14:28.698Z,8.55
2022-09-21T18:17:29.438Z,8.57
2022-09-21T18:20:24.357Z,12.30
2022-09-21T18:23:12.566Z,10.68
2022-09-21T18:25:48.686Z,8.02
2022-09-21T18:28:40.705Z,27.23
2022-09-21T18:31:47.991Z,22.30
2022-09-21T18:34:51.119Z,19.85
2022-09-21T18:37:34.566Z,17.50
2022-09-21T18:40:31.709Z,15.77
2022-09-21T18:43:15.497Z,14.70
2022-09-21T18:45:54.815Z,15.50
2022-09-21T18:48:51.157Z,17.45
2022-09-21T18:51:51.029Z,17.88
2022-09-21T18:54:28.673Z,13.48
2022-09-21T18:57:00.661Z,14.85
2022-09-21T18:59:32.494Z,14.20
2022-09-21T19:02:09.733Z,13.95
2022-09-21T19:04:45.489Z,14.35
2022-09-21T19:07:42.137Z,13.23
2022-09-21T19:10:25.501Z,15.98
2022-09-21T19:13:02.243Z,21.05
2022-09-21T19:15:59.017Z,18.00
2022-09-21T19:18:52.320Z,19.47
2022-09-21T19:21:39.457Z,16.90
2022-09-21T19:24:35.960Z,19.55
2022-09-21T19:27:16.165Z,16.17
2022-09-21T19:29:50.809Z,16.17
2022-09-21T19:35:25.273Z,13.38
2022-09-21T19:38:04.009Z,14.82
2022-09-21T19:40:39.258Z,13.75
2022-09-21T19:43:43.289Z,14.05
2022-09-21T19:46:31.127Z,12.90
2022-09-21T19:49:25.217Z,15.38
2022-09-21T19:52:00.855Z,13.98
2022-09-21T19:54:53.977Z,14.23
2022-09-21T19:57:44.496Z,15.98
2022-09-21T20:00:17.590Z,11.98
2022-09-21T20:03:13.943Z,12.40
2022-09-21T20:05:58.585Z,14.25
2022-09-21T20:08:48.924Z,12.70
2022-09-21T20:11:50.569Z,12.68
2022-09-21T20:14:44.066Z,11.98
2022-09-21T20:17:30.299Z,12.88
2022-09-21T20:20:22.338Z,12.73
2022-09-21T20:22:54.839Z,16.38
2022-09-21T20:25:35.233Z,14.52
2022-09-21T20:28:07.314Z,11.20
2022-09-21T20:30:40.063Z,14.13
2022-09-21T20:33:15.232Z,12.38
2022-09-21T20:35:46.844Z,13.38
2022-09-21T20:38:18.550Z,11.50
2022-09-21T20:40:53.367Z,13.65
2022-09-21T20:43:27.936Z,14.15
2022-09-21T20:46:03.708Z,10.38
2022-09-21T20:48:37.032Z,12.38
2022-09-21T20:51:10.900Z,13.07
2022-09-21T20:53:42.537Z,12.27
2022-09-21T20:56:16.128Z,12.40
2022-09-21T20:58:47.725Z,13.93
2022-09-21T21:01:19.440Z,16.70
2022-09-21T21:03:51.353Z,13.07
2022-09-21T21:06:23.246Z,14.25
2022-09-21T21:08:54.899Z,13.38
2022-09-21T21:11:28.070Z,13.15
2022-09-21T21:13:59.682Z,13.43
2022-09-21T21:16:31.438Z,13.35
2022-09-21T21:19:03.764Z,15.13
2022-09-21T21:21:35.937Z,15.93
2022-09-21T21:24:26.265Z,16.65
2022-09-21T21:27:02.206Z,12.98
2022-09-21T21:29:35.194Z,14.05
2022-09-21T21:32:06.890Z,14.35
2022-09-21T21:34:38.766Z,16.52
2022-09-21T21:37:12.600Z,14.82
2022-09-21T21:39:44.431Z,17.37
2022-09-21T21:42:16.071Z,16.60
2022-09-21T21:44:50.696Z,17.08
2022-09-21T21:50:13.998Z,14.02
2022-09-21T21:52:45.661Z,14.63
2022-09-21T21:55:17.271Z,15.15
2022-09-21T21:57:48.956Z,15.23
2022-09-21T22:00:20.637Z,14.20
2022-09-21T22:02:52.318Z,16.38
2022-09-21T22:05:23.948Z,18.95
2022-09-21T22:07:55.571Z,17.48
2022-09-21T22:10:28.150Z,14.82
2022-09-21T22:12:59.778Z,17.33
2022-09-21T22:15:33.990Z,16.65
2022-09-21T22:18:07.653Z,16.02
2022-09-21T22:20:40.556Z,18.25
2022-09-21T22:23:13.854Z,17.75
2022-09-21T22:25:45.478Z,15.90
2022-09-21T22:28:17.143Z,15.90
2022-09-21T22:30:49.832Z,18.40
2022-09-21T22:33:21.646Z,16.13
2022-09-21T22:35:53.251Z,16.73
2022-09-21T22:38:24.919Z,18.50
2022-09-21T22:40:56.513Z,16.55
2022-09-21T22:43:28.139Z,15.63
2022-09-21T22:46:00.017Z,18.05
2022-09-21T22:48:31.748Z,16.80
2022-09-21T22:51:04.422Z,16.38
2022-09-21T22:53:36.114Z,16.80
2022-09-21T22:56:17.284Z,16.92
2022-09-21T22:58:51.222Z,16.95
2022-09-21T23:01:33.540Z,16.05
2022-09-21T23:04:10.843Z,17.38
2022-09-21T23:06:45.235Z,17.25
2022-09-21T23:09:21.364Z,18.17
2022-09-21T23:11:55.614Z,15.43
2022-09-21T23:14:27.265Z,17.25
2022-09-21T23:16:59.152Z,15.25
2022-09-21T23:19:31.331Z,17.85
2022-09-21T23:22:03.444Z,18.15
2022-09-21T23:24:35.046Z,19.17
2022-09-21T23:27:06.668Z,15.80
2022-09-21T23:29:38.291Z,16.90
2022-09-21T23:32:09.945Z,17.10
2022-09-21T23:34:41.624Z,17.92
2022-09-21T23:37:13.262Z,17.38
2022-09-21T23:39:44.914Z,18.33
2022-09-21T23:42:17.016Z,15.82
2022-09-21T23:44:48.643Z,16.10
2022-09-21T23:47:20.318Z,15.38
2022-09-21T23:49:52.251Z,16.50
2022-09-21T23:52:24.175Z,15.43
2022-09-21T23:54:55.779Z,16.15
2022-09-21T23:57:27.415Z,16.05
2022-09-21T23:59:59.022Z,14.48
